createdAt,value
2022-12-23T00:02:25.683Z,0
2022-12-23T00:07:25.587Z,0
2022-12-23T00:12:25.636Z,0
2022-12-23T00:17:25.634Z,0
2022-12-23T00:22:25.623Z,0
2022-12-23T00:27:26.763Z,0
2022-12-23T00:32:26.790Z,0
2022-12-23T00:37:26.773Z,0
2022-12-23T00:42:26.762Z,0
2022-12-23T00:47:26.772Z,0
2022-12-23T00:52:26.815Z,0
2022-12-23T00:57:26.761Z,0
2022-12-23T01:02:26.884Z,0
2022-12-23T01:07:26.747Z,0
2022-12-23T01:12:26.750Z,0
2022-12-23T01:17:26.757Z,0
2022-12-23T01:22:26.763Z,0
2022-12-23T01:27:26.772Z,0
2022-12-23T01:32:26.791Z,0
2022-12-23T01:37:26.757Z,0
2022-12-23T01:42:26.777Z,0
2022-12-23T01:47:26.746Z,0
2022-12-23T01:52:26.762Z,0
2022-12-23T01:57:26.775Z,0
2022-12-23T02:02:26.823Z,0
2022-12-23T02:07:26.721Z,0
2022-12-23T02:12:26.782Z,0
2022-12-23T02:17:26.741Z,0
2022-12-23T02:22:26.757Z,0
2022-12-23T02:27:26.740Z,0
2022-12-23T02:32:26.750Z,0
2022-12-23T02:37:26.707Z,0
2022-12-23T02:42:26.735Z,0
2022-12-23T02:47:26.743Z,0
2022-12-23T02:52:26.739Z,0
2022-12-23T02:57:26.728Z,0
2022-12-23T03:02:26.954Z,0
2022-12-23T03:07:26.751Z,0
2022-12-23T03:12:26.756Z,0
2022-12-23T03:17:26.702Z,0
2022-12-23T03:22:26.734Z,0
2022-12-23T03:27:26.740Z,0
2022-12-23T03:32:26.750Z,0
2022-12-23T03:37:26.706Z,0
2022-12-23T03:42:26.719Z,0
2022-12-23T03:47:26.721Z,0
2022-12-23T03:52:26.803Z,0
2022-12-23T03:57:26.727Z,0
2022-12-23T04:02:26.814Z,0
2022-12-23T04:07:26.729Z,0
2022-12-23T04:12:26.759Z,0
2022-12-23T04:17:26.723Z,0
2022-12-23T04:22:26.690Z,0
2022-12-23T04:27:26.722Z,0
2022-12-23T04:32:26.763Z,0
2022-12-23T04:37:26.703Z,0
2022-12-23T04:42:26.717Z,0
2022-12-23T04:47:26.710Z,0
2022-12-23T04:52:26.749Z,0
2022-12-23T04:57:26.713Z,0
2022-12-23T05:02:26.774Z,0
2022-12-23T05:07:26.703Z,0
2022-12-23T05:12:26.956Z,0
2022-12-23T05:17:26.978Z,0
2022-12-23T05:22:28.318Z,0
2022-12-23T05:27:28.276Z,0
2022-12-23T05:32:28.331Z,0
2022-12-23T05:37:28.299Z,0
2022-12-23T05:42:28.307Z,0
2022-12-23T05:47:28.271Z,0
2022-12-23T05:52:28.306Z,0
2022-12-23T05:57:28.309Z,0
2022-12-23T06:02:28.390Z,0
2022-12-23T06:07:28.265Z,0
2022-12-23T06:12:28.448Z,0
2022-12-23T06:17:28.262Z,0
2022-12-23T06:22:29.938Z,0
2022-12-23T06:27:29.946Z,0
2022-12-23T06:32:34.493Z,0
2022-12-23T06:37:29.922Z,0
2022-12-23T06:42:29.933Z,0
2022-12-23T06:47:29.947Z,0
2022-12-23T06:52:29.950Z,0
2022-12-23T06:57:29.912Z,0
2022-12-23T07:02:29.969Z,0
2022-12-23T07:07:29.904Z,0
2022-12-23T07:12:29.969Z,0
2022-12-23T07:17:29.906Z,0
2022-12-23T07:22:30.690Z,0
2022-12-23T07:27:30.690Z,0
2022-12-23T07:32:30.711Z,0
2022-12-23T07:37:30.649Z,0
2022-12-23T07:42:44.618Z,0
2022-12-23T07:47:31.479Z,0
2022-12-23T07:52:32.095Z,0
2022-12-23T07:57:31.708Z,6
2022-12-23T08:02:31.935Z,17
2022-12-23T08:07:31.690Z,16
2022-12-23T08:12:32.815Z,16
2022-12-23T08:17:32.759Z,13
2022-12-23T08:22:32.775Z,12
2022-12-23T08:27:32.769Z,6
2022-12-23T08:32:32.783Z,12
2022-12-23T08:37:32.733Z,14
2022-12-23T08:42:32.785Z,16
2022-12-23T08:47:33.032Z,11
2022-12-23T08:52:33.087Z,13
2022-12-23T08:57:32.991Z,12
2022-12-23T09:02:33.254Z,14
2022-12-23T09:07:33.016Z,12
2022-12-23T09:12:33.013Z,17
2022-12-23T09:17:32.975Z,16
2022-12-23T09:22:33.247Z,20
2022-12-23T09:27:33.261Z,21
2022-12-23T09:32:33.249Z,21
2022-12-23T09:37:33.253Z,15
2022-12-23T09:42:33.274Z,17
2022-12-23T09:47:33.249Z,32
2022-12-23T09:52:33.842Z,19
2022-12-23T09:57:33.808Z,25
2022-12-23T10:02:34.042Z,46
2022-12-23T10:07:33.857Z,25
2022-12-23T10:12:39.644Z,15
2022-12-23T10:17:34.717Z,12
2022-12-23T10:22:34.707Z,14
2022-12-23T10:27:34.763Z,22
2022-12-23T10:32:34.831Z,19
2022-12-23T10:37:34.746Z,26
2022-12-23T10:42:34.743Z,36
2022-12-23T10:47:34.700Z,42
2022-12-23T10:52:35.377Z,36
2022-12-23T10:57:35.328Z,35
2022-12-23T11:02:35.433Z,41
2022-12-23T11:07:44.877Z,37
2022-12-23T11:12:40.476Z,48
2022-12-23T11:17:36.419Z,61
2022-12-23T11:22:36.423Z,70
2022-12-23T11:27:37.320Z,107
2022-12-23T11:32:37.324Z,94
2022-12-23T11:37:37.296Z,52
2022-12-23T11:42:37.792Z,40
2022-12-23T11:47:37.528Z,39
2022-12-23T11:52:37.562Z,44
2022-12-23T11:57:37.752Z,40
2022-12-23T12:02:37.856Z,46
2022-12-23T12:07:37.791Z,41
2022-12-23T12:12:37.833Z,46
2022-12-23T12:17:38.060Z,46
2022-12-23T12:22:38.069Z,53
2022-12-23T12:27:38.030Z,30
2022-12-23T12:32:40.221Z,24
2022-12-23T12:37:40.458Z,25
2022-12-23T12:42:40.695Z,17
2022-12-23T12:47:56.984Z,16
2022-12-23T12:52:47.449Z,12
2022-12-23T12:57:47.462Z,12
2022-12-23T13:02:48.093Z,10
2022-12-23T13:07:49.826Z,9
2022-12-23T13:12:50.045Z,11
2022-12-23T13:17:50.075Z,6
2022-12-23T13:22:50.031Z,6
2022-12-23T13:27:50.462Z,5
2022-12-23T13:32:50.312Z,2
2022-12-23T13:37:50.316Z,6
2022-12-23T13:42:50.320Z,5
2022-12-23T13:47:50.318Z,4
2022-12-23T13:52:50.341Z,3
2022-12-23T13:57:51.430Z,3
2022-12-23T14:02:51.777Z,2
2022-12-23T14:07:51.978Z,1
2022-12-23T14:12:51.950Z,0
2022-12-23T14:17:51.944Z,0
2022-12-23T14:22:52.233Z,0
2022-12-23T14:27:52.248Z,0
2022-12-23T14:32:52.196Z,0
2022-12-23T14:37:52.724Z,0
2022-12-23T14:42:52.447Z,0
2022-12-23T14:47:52.470Z,0
2022-12-23T14:52:52.954Z,0
2022-12-23T14:57:52.979Z,0
2022-12-23T15:02:53.598Z,0
2022-12-23T15:07:53.269Z,0
2022-12-23T15:12:53.242Z,0
2022-12-23T15:17:53.192Z,0
2022-12-23T15:22:53.189Z,0
2022-12-23T15:27:59.253Z,0
2022-12-23T15:32:54.104Z,0
2022-12-23T15:37:54.088Z,0
2022-12-23T15:42:54.057Z,0
2022-12-23T15:47:54.121Z,0
2022-12-23T15:52:54.098Z,0
2022-12-23T15:57:54.087Z,0
2022-12-23T16:03:03.263Z,0
2022-12-23T16:07:54.090Z,0
2022-12-23T16:12:54.101Z,0
2022-12-23T16:17:54.104Z,0
2022-12-23T16:22:54.141Z,0
2022-12-23T16:27:54.835Z,0
2022-12-23T16:32:54.754Z,0
2022-12-23T16:37:54.724Z,0
2022-12-23T16:42:55.745Z,0
2022-12-23T16:47:55.787Z,0
2022-12-23T16:52:55.748Z,0
2022-12-23T16:57:56.016Z,0
2022-12-23T17:02:56.767Z,0
2022-12-23T17:07:56.707Z,0
2022-12-23T17:12:56.661Z,0
2022-12-23T17:17:56.708Z,0
2022-12-23T17:22:57.619Z,0
2022-12-23T17:27:57.596Z,0
2022-12-23T17:32:57.590Z,0
2022-12-23T17:37:57.561Z,0
2022-12-23T17:42:57.591Z,0
2022-12-23T17:47:57.626Z,0
2022-12-23T17:52:57.603Z,0
2022-12-23T17:57:57.806Z,0
2022-12-23T18:02:57.933Z,0
2022-12-23T18:07:57.828Z,0
2022-12-23T18:12:58.673Z,0
2022-12-23T18:17:58.680Z,0
2022-12-23T18:22:58.959Z,0
2022-12-23T18:27:59.203Z,0
2022-12-23T18:32:59.164Z,0
2022-12-23T18:37:59.164Z,0
2022-12-23T18:42:59.182Z,0
2022-12-23T18:47:59.402Z,0
2022-12-23T18:52:59.414Z,0
2022-12-23T18:57:59.419Z,0
2022-12-23T19:02:59.447Z,0
2022-12-23T19:07:59.687Z,0
2022-12-23T19:12:59.685Z,0
2022-12-23T19:17:59.659Z,0
2022-12-23T19:22:59.626Z,0
2022-12-23T19:28:01.198Z,0
2022-12-23T19:33:05.941Z,0
2022-12-23T19:38:05.935Z,0
2022-12-23T19:43:05.951Z,0
2022-12-23T19:48:05.905Z,0
2022-12-23T19:53:06.902Z,0
2022-12-23T19:58:06.883Z,0
2022-12-23T20:03:06.943Z,0
2022-12-23T20:08:06.874Z,0
2022-12-23T20:13:06.889Z,0
2022-12-23T20:18:06.889Z,0
2022-12-23T20:23:06.889Z,0
2022-12-23T20:28:06.882Z,0
2022-12-23T20:33:06.849Z,0
2022-12-23T20:38:06.868Z,0
2022-12-23T20:43:10.366Z,0
2022-12-23T20:48:06.858Z,0
2022-12-23T20:53:06.885Z,0
2022-12-23T20:58:06.844Z,0
2022-12-23T21:03:10.522Z,0
2022-12-23T21:08:07.763Z,0
2022-12-23T21:13:07.351Z,0
2022-12-23T21:18:07.393Z,0
2022-12-23T21:23:07.392Z,0
2022-12-23T21:28:07.350Z,0
2022-12-23T21:33:07.360Z,0
2022-12-23T21:38:07.323Z,0
2022-12-23T21:43:08.913Z,0
2022-12-23T21:48:07.358Z,0
2022-12-23T21:53:07.352Z,0
2022-12-23T21:58:07.371Z,0
2022-12-23T22:03:07.378Z,0
2022-12-23T22:08:07.363Z,0
2022-12-23T22:13:07.309Z,0
2022-12-23T22:18:10.124Z,0
2022-12-23T22:23:10.071Z,0
2022-12-23T22:28:10.096Z,0
2022-12-23T22:33:10.080Z,0
2022-12-23T22:38:10.101Z,0
2022-12-23T22:43:10.053Z,0
2022-12-23T22:48:10.050Z,0
2022-12-23T22:53:10.030Z,0
2022-12-23T22:58:10.055Z,0
2022-12-23T23:03:10.084Z,0
2022-12-23T23:08:10.072Z,0
2022-12-23T23:13:10.029Z,0
2022-12-23T23:18:10.049Z,0
2022-12-23T23:23:10.046Z,0
2022-12-23T23:28:10.023Z,0
2022-12-23T23:33:10.094Z,0
2022-12-23T23:38:10.080Z,0
2022-12-23T23:43:10.017Z,0
2022-12-23T23:48:10.018Z,0
2022-12-23T23:53:10.669Z,0
2022-12-23T23:58:10.643Z,0
